createdAt,value
2023-03-03T00:01:44.149Z,12.13
2023-03-03T00:04:13.168Z,11.73
2023-03-03T00:06:42.234Z,12.13
2023-03-03T00:09:11.347Z,12.02
2023-03-03T00:11:40.437Z,12.45
2023-03-03T00:14:23.543Z,13.20
2023-03-03T00:16:52.647Z,12.25
2023-03-03T00:19:23.387Z,11.40
2023-03-03T00:21:54.293Z,12.20
2023-03-03T00:24:25.785Z,12.23
2023-03-03T00:26:56.742Z,11.80
2023-03-03T00:29:31.265Z,12.30
2023-03-03T00:32:26.715Z,10.73
2023-03-03T00:34:57.750Z,12.73
2023-03-03T00:37:32.653Z,12.43
2023-03-03T00:40:25.202Z,12.65
2023-03-03T00:42:56.436Z,12.25
2023-03-03T00:45:33.039Z,11.40
2023-03-03T00:48:11.400Z,12.02
2023-03-03T00:50:44.788Z,12.23
2023-03-03T00:53:17.343Z,10.07
2023-03-03T00:55:47.837Z,15.10
2023-03-03T00:58:18.753Z,12.50
2023-03-03T01:00:51.465Z,12.52
2023-03-03T01:03:25.691Z,13.25
2023-03-03T01:05:55.725Z,13.20
2023-03-03T01:08:25.374Z,13.13
2023-03-03T01:10:56.140Z,14.00
2023-03-03T01:13:27.442Z,11.45
2023-03-03T01:15:58.293Z,11.57
2023-03-03T01:18:27.975Z,12.45
2023-03-03T01:20:57.305Z,12.43
2023-03-03T01:23:26.373Z,12.82
2023-03-03T01:25:55.629Z,13.93
2023-03-03T01:28:24.717Z,15.70
2023-03-03T01:30:54.609Z,13.07
2023-03-03T01:33:25.242Z,14.98
2023-03-03T01:35:54.748Z,13.20
2023-03-03T01:38:23.902Z,15.57
2023-03-03T01:40:55.826Z,13.90
2023-03-03T01:43:27.653Z,14.88
2023-03-03T01:46:36.364Z,15.30
2023-03-03T01:49:14.114Z,13.02
2023-03-03T01:51:50.013Z,14.80
2023-03-03T01:54:23.044Z,16.50
2023-03-03T01:56:54.244Z,12.85
2023-03-03T01:59:29.077Z,13.13
2023-03-03T02:01:58.219Z,12.80
2023-03-03T02:04:29.474Z,14.35
2023-03-03T02:07:04.500Z,13.90
2023-03-03T02:09:42.730Z,13.80
2023-03-03T02:12:15.129Z,14.10
2023-03-03T02:14:44.220Z,13.07
2023-03-03T02:17:13.549Z,11.98
2023-03-03T02:19:52.320Z,14.20
2023-03-03T02:22:28.378Z,12.35
2023-03-03T02:25:01.875Z,15.73
2023-03-03T02:27:34.587Z,14.55
2023-03-03T02:30:13.188Z,14.13
2023-03-03T02:32:42.675Z,13.98
2023-03-03T02:35:33.242Z,12.20
2023-03-03T02:38:11.057Z,13.73
2023-03-03T02:40:44.447Z,13.57
2023-03-03T02:43:18.678Z,15.63
2023-03-03T02:45:48.177Z,14.43
2023-03-03T02:48:17.388Z,14.65
2023-03-03T02:50:46.872Z,13.45
2023-03-03T02:53:15.951Z,13.05
2023-03-03T02:55:45.067Z,13.02
2023-03-03T02:58:15.633Z,15.50
2023-03-03T03:00:47.739Z,14.82
2023-03-03T03:03:20.867Z,13.88
2023-03-03T03:05:50.592Z,16.77
2023-03-03T03:08:22.575Z,14.93
2023-03-03T03:10:51.599Z,13.95
2023-03-03T03:13:22.152Z,13.68
2023-03-03T03:15:51.145Z,13.35
2023-03-03T03:18:20.232Z,13.95
2023-03-03T03:21:10.279Z,12.70
2023-03-03T03:23:40.404Z,14.13
2023-03-03T03:26:10.095Z,14.38
2023-03-03T03:28:40.965Z,11.60
2023-03-03T03:31:10.934Z,17.90
2023-03-03T03:33:40.041Z,13.82
2023-03-03T03:36:10.097Z,12.15
2023-03-03T03:38:39.790Z,13.10
2023-03-03T03:41:10.598Z,12.52
2023-03-03T03:43:42.052Z,12.73
2023-03-03T03:46:11.140Z,12.63
2023-03-03T03:48:40.277Z,13.45
2023-03-03T03:51:12.754Z,11.85
2023-03-03T03:53:42.780Z,15.00
2023-03-03T03:56:12.102Z,13.98
2023-03-03T03:58:44.485Z,16.63
2023-03-03T04:01:15.750Z,13.50
2023-03-03T04:03:49.529Z,11.88
2023-03-03T04:06:22.091Z,13.80
2023-03-03T04:08:51.414Z,14.27
2023-03-03T04:11:23.441Z,11.60
2023-03-03T04:13:53.922Z,10.95
2023-03-03T04:16:23.810Z,12.23
2023-03-03T04:18:53.059Z,13.45
2023-03-03T04:21:23.244Z,13.95
2023-03-03T04:23:54.474Z,12.10
2023-03-03T04:26:23.989Z,14.25
2023-03-03T04:28:54.997Z,12.93
2023-03-03T04:31:25.854Z,13.55
2023-03-03T04:33:54.952Z,11.70
2023-03-03T04:36:25.216Z,14.35
2023-03-03T04:38:54.374Z,11.40
2023-03-03T04:41:23.599Z,13.02
2023-03-03T04:43:54.022Z,11.68
2023-03-03T04:46:23.219Z,12.13
2023-03-03T04:48:53.029Z,11.00
2023-03-03T04:51:22.652Z,9.55
2023-03-03T04:53:51.742Z,12.13
2023-03-03T04:56:21.115Z,12.27
2023-03-03T04:58:51.451Z,12.90
2023-03-03T05:01:21.924Z,11.80
2023-03-03T05:03:51.198Z,11.07
2023-03-03T05:06:20.292Z,11.30
2023-03-03T05:08:49.309Z,12.00
2023-03-03T05:11:18.370Z,11.68
2023-03-03T05:13:47.340Z,13.40
2023-03-03T05:16:16.480Z,13.40
2023-03-03T05:18:47.950Z,14.50
2023-03-03T05:21:17.056Z,14.27
2023-03-03T05:23:46.028Z,12.77
2023-03-03T05:26:15.085Z,13.82
2023-03-03T05:28:44.056Z,15.93
2023-03-03T05:31:13.235Z,13.95
2023-03-03T05:33:42.164Z,13.73
2023-03-03T05:36:12.594Z,14.15
2023-03-03T05:38:41.561Z,13.90
2023-03-03T05:41:10.716Z,11.70
2023-03-03T05:43:39.778Z,12.60
2023-03-03T05:46:08.987Z,10.63
2023-03-03T05:48:37.976Z,13.98
2023-03-03T05:51:07.364Z,11.95
2023-03-03T05:53:38.141Z,13.10
2023-03-03T05:56:07.759Z,13.75
2023-03-03T05:58:36.921Z,13.52
2023-03-03T06:01:06.067Z,13.60
2023-03-03T06:03:35.122Z,9.15
2023-03-03T06:06:04.346Z,9.32
2023-03-03T06:08:33.648Z,9.20
2023-03-03T06:11:04.311Z,10.35
2023-03-03T06:13:33.788Z,9.27
2023-03-03T06:16:02.958Z,10.30
2023-03-03T06:18:32.047Z,9.25
2023-03-03T06:21:01.075Z,10.50
2023-03-03T06:23:30.139Z,10.23
2023-03-03T06:25:59.242Z,9.00
2023-03-03T06:28:29.705Z,9.30
2023-03-03T06:30:59.704Z,11.93
2023-03-03T06:33:28.809Z,10.18
2023-03-03T06:35:58.126Z,11.98
2023-03-03T06:38:27.407Z,9.70
2023-03-03T06:40:56.444Z,10.75
2023-03-03T06:43:25.501Z,8.55
2023-03-03T06:45:56.153Z,11.52
2023-03-03T06:48:25.258Z,9.35
2023-03-03T06:50:54.211Z,12.63
2023-03-03T06:53:23.354Z,10.13
2023-03-03T06:55:52.817Z,11.65
2023-03-03T06:58:24.206Z,12.75
2023-03-03T07:00:59.066Z,10.65
2023-03-03T07:03:34.086Z,11.90
2023-03-03T07:06:06.071Z,12.20
2023-03-03T07:08:35.368Z,11.77
2023-03-03T07:11:10.464Z,12.55
2023-03-03T07:13:47.674Z,12.50
2023-03-03T07:16:19.928Z,12.93
2023-03-03T07:18:53.202Z,10.20
2023-03-03T07:21:25.042Z,12.07
2023-03-03T07:23:55.040Z,11.73
2023-03-03T07:26:29.040Z,14.60
2023-03-03T07:29:01.386Z,13.77
2023-03-03T07:31:36.841Z,10.55
2023-03-03T07:34:18.221Z,10.63
2023-03-03T07:36:47.348Z,13.00
2023-03-03T07:39:35.358Z,8.40
2023-03-03T07:42:24.875Z,9.68
2023-03-03T07:45:04.487Z,10.57
2023-03-03T07:47:38.511Z,7.88
2023-03-03T07:50:19.605Z,9.80
2023-03-03T07:52:57.011Z,9.98
2023-03-03T07:55:32.576Z,8.43
2023-03-03T07:58:21.501Z,18.80
2023-03-03T08:01:29.345Z,9.70
2023-03-03T08:04:00.063Z,8.93
2023-03-03T08:06:49.928Z,12.63
2023-03-03T08:09:43.851Z,8.60
2023-03-03T08:12:43.915Z,9.10
2023-03-03T08:15:21.652Z,8.45
2023-03-03T08:17:52.205Z,9.45
2023-03-03T08:20:45.925Z,10.38
2023-03-03T08:23:16.822Z,10.52
2023-03-03T08:25:51.536Z,10.07
2023-03-03T08:28:21.530Z,11.63
2023-03-03T08:30:55.827Z,9.40
2023-03-03T08:33:29.147Z,11.50
2023-03-03T08:36:02.247Z,9.27
2023-03-03T08:38:31.306Z,9.70
2023-03-03T08:41:00.482Z,10.23
2023-03-03T08:43:29.834Z,10.10
2023-03-03T08:46:01.224Z,9.45
2023-03-03T08:48:31.189Z,7.07
2023-03-03T08:51:01.980Z,6.15
2023-03-03T08:53:33.621Z,8.32
2023-03-03T08:56:02.592Z,9.70
2023-03-03T08:58:35.461Z,7.63
2023-03-03T09:01:05.339Z,7.80
2023-03-03T09:03:34.426Z,7.38
2023-03-03T09:06:04.934Z,7.80
2023-03-03T09:08:34.280Z,7.53
2023-03-03T09:11:03.552Z,8.35
2023-03-03T09:13:33.379Z,7.65
2023-03-03T09:16:18.375Z,7.85
2023-03-03T09:18:47.502Z,8.02
2023-03-03T09:21:25.455Z,9.50
2023-03-03T09:23:57.817Z,7.75
2023-03-03T09:26:41.568Z,7.57
2023-03-03T09:29:23.541Z,7.88
2023-03-03T09:31:55.132Z,7.72
2023-03-03T09:34:27.863Z,6.65
2023-03-03T09:37:47.878Z,6.93
2023-03-03T09:40:47.319Z,7.75
2023-03-03T09:43:24.244Z,7.20
2023-03-03T09:46:05.741Z,6.95
2023-03-03T09:48:53.746Z,7.95
2023-03-03T09:51:48.653Z,5.90
2023-03-03T09:54:28.615Z,8.77
2023-03-03T09:57:06.726Z,7.22
2023-03-03T09:59:48.719Z,7.50
2023-03-03T10:02:39.664Z,8.30
2023-03-03T10:05:20.689Z,8.73
2023-03-03T10:08:04.280Z,8.30
2023-03-03T10:10:54.816Z,9.15
2023-03-03T10:13:42.210Z,10.25
2023-03-03T10:16:28.674Z,8.20
2023-03-03T10:19:03.312Z,8.18
2023-03-03T10:21:37.021Z,9.93
2023-03-03T10:24:20.922Z,10.57
2023-03-03T10:27:15.477Z,9.00
2023-03-03T10:30:00.125Z,9.45
2023-03-03T10:32:38.286Z,8.05
2023-03-03T10:36:00.913Z,11.05
2023-03-03T10:38:46.561Z,9.10
2023-03-03T10:41:33.460Z,8.55
2023-03-03T10:44:23.093Z,8.35
2023-03-03T10:47:02.542Z,9.07
2023-03-03T10:49:53.357Z,10.85
2023-03-03T10:53:17.167Z,10.25
2023-03-03T10:55:59.200Z,8.88
2023-03-03T10:58:58.858Z,11.63
2023-03-03T11:01:37.445Z,10.73
2023-03-03T11:04:40.680Z,11.93
2023-03-03T11:07:14.193Z,11.30
2023-03-03T11:09:58.614Z,11.50
2023-03-03T11:12:41.322Z,10.52
2023-03-03T11:15:35.386Z,13.55
2023-03-03T11:18:25.549Z,10.20
2023-03-03T11:21:06.727Z,9.77
2023-03-03T11:23:50.677Z,12.68
2023-03-03T11:26:31.716Z,11.50
2023-03-03T11:29:14.519Z,12.07
2023-03-03T11:31:52.431Z,13.23
2023-03-03T11:34:37.716Z,11.10
2023-03-03T11:37:12.068Z,11.80
2023-03-03T11:39:43.456Z,11.35
2023-03-03T11:42:25.162Z,11.07
2023-03-03T11:44:58.229Z,10.95
2023-03-03T11:47:35.612Z,15.30
2023-03-03T11:50:10.052Z,11.25
2023-03-03T11:52:46.107Z,13.40
2023-03-03T11:55:22.556Z,13.73
2023-03-03T11:57:57.309Z,11.82
2023-03-03T12:00:36.162Z,12.90
2023-03-03T12:03:20.978Z,11.75
2023-03-03T12:06:06.345Z,14.15
2023-03-03T12:09:05.507Z,10.15
2023-03-03T12:11:42.543Z,13.60
2023-03-03T12:14:19.418Z,12.82
2023-03-03T12:16:56.781Z,12.98
2023-03-03T12:19:44.585Z,13.75
2023-03-03T12:22:29.793Z,10.60
2023-03-03T12:25:24.894Z,10.10
2023-03-03T12:28:02.036Z,11.55
2023-03-03T12:31:04.733Z,11.82
2023-03-03T12:33:46.513Z,13.48
2023-03-03T12:36:47.309Z,12.45
2023-03-03T12:39:35.079Z,12.98
2023-03-03T12:42:14.383Z,12.60
2023-03-03T12:44:51.495Z,12.52
2023-03-03T12:47:29.207Z,13.18
2023-03-03T12:50:16.296Z,12.00
2023-03-03T12:52:53.882Z,11.07
2023-03-03T12:55:35.334Z,13.52
2023-03-03T12:58:16.383Z,13.38
2023-03-03T13:00:53.592Z,12.38
2023-03-03T13:03:37.141Z,14.02
2023-03-03T13:06:20.975Z,12.27
2023-03-03T13:09:07.257Z,12.80
2023-03-03T13:11:53.039Z,15.00
2023-03-03T13:14:35.485Z,13.00
2023-03-03T13:17:14.340Z,12.57
2023-03-03T13:19:50.572Z,14.10
2023-03-03T13:22:32.692Z,17.33
2023-03-03T13:25:08.206Z,15.23
2023-03-03T13:27:41.782Z,14.13
2023-03-03T13:30:19.628Z,12.00
2023-03-03T13:32:58.435Z,14.60
2023-03-03T13:35:40.446Z,12.68
2023-03-03T13:38:14.376Z,14.85
2023-03-03T13:40:48.187Z,13.88
2023-03-03T13:43:21.069Z,12.68
2023-03-03T13:46:14.802Z,12.82
2023-03-03T13:49:05.362Z,12.88
2023-03-03T13:51:59.312Z,13.52
2023-03-03T13:54:45.388Z,11.77
2023-03-03T13:57:29.354Z,13.40
2023-03-03T14:00:13.276Z,15.55
2023-03-03T14:03:11.871Z,13.05
2023-03-03T14:05:46.377Z,12.38
2023-03-03T14:08:29.137Z,14.25
2023-03-03T14:11:08.744Z,13.63
2023-03-03T14:13:46.589Z,15.48
2023-03-03T14:16:23.175Z,13.27
2023-03-03T14:18:58.502Z,13.65
2023-03-03T14:21:35.319Z,13.93
2023-03-03T14:24:16.248Z,13.80
2023-03-03T14:26:50.705Z,15.07
2023-03-03T14:29:30.966Z,13.85
2023-03-03T14:32:01.656Z,16.48
2023-03-03T14:34:39.464Z,14.25
2023-03-03T14:37:25.083Z,14.90
2023-03-03T14:40:08.456Z,13.20
2023-03-03T14:42:48.744Z,13.55
2023-03-03T14:45:30.329Z,12.75
2023-03-03T14:48:00.896Z,14.65
2023-03-03T14:50:34.973Z,12.13
2023-03-03T14:53:24.628Z,15.05
2023-03-03T14:55:54.810Z,13.27
2023-03-03T14:58:43.808Z,13.40
2023-03-03T15:01:22.331Z,12.50
2023-03-03T15:04:00.009Z,13.48
2023-03-03T15:06:34.200Z,14.27
2023-03-03T15:09:36.816Z,13.32
2023-03-03T15:12:21.421Z,13.38
2023-03-03T15:14:52.197Z,13.63
2023-03-03T15:17:31.130Z,15.05
2023-03-03T15:20:26.069Z,14.95
2023-03-03T15:23:06.463Z,14.85
2023-03-03T15:25:47.498Z,12.02
2023-03-03T15:28:37.930Z,13.75
2023-03-03T15:31:20.685Z,14.38
2023-03-03T15:34:07.129Z,13.70
2023-03-03T15:36:45.496Z,13.00
2023-03-03T15:39:24.678Z,12.95
2023-03-03T15:42:04.142Z,11.68
2023-03-03T15:44:45.277Z,13.80
2023-03-03T15:47:33.181Z,12.82
2023-03-03T15:50:29.644Z,12.02
2023-03-03T15:53:06.646Z,14.63
2023-03-03T15:55:48.150Z,13.98
2023-03-03T15:58:40.958Z,14.25
2023-03-03T16:01:19.526Z,12.75
2023-03-03T16:03:54.646Z,15.80
2023-03-03T16:06:31.508Z,14.00
2023-03-03T16:09:08.249Z,14.82
2023-03-03T16:12:13.235Z,12.55
2023-03-03T16:15:02.435Z,14.35
2023-03-03T16:17:40.676Z,13.48
2023-03-03T16:20:21.879Z,12.35
2023-03-03T16:23:44.777Z,12.45
2023-03-03T16:26:33.021Z,13.48
2023-03-03T16:29:18.776Z,13.80
2023-03-03T16:31:54.550Z,12.75
2023-03-03T16:34:29.809Z,11.85
2023-03-03T16:37:08.325Z,13.07
2023-03-03T16:39:51.863Z,12.77
2023-03-03T16:42:27.334Z,13.85
2023-03-03T16:45:23.058Z,13.80
2023-03-03T16:48:09.670Z,13.20
2023-03-03T16:50:46.054Z,11.02
2023-03-03T16:53:25.926Z,13.15
2023-03-03T16:56:05.536Z,13.55
2023-03-03T16:58:49.747Z,13.57
2023-03-03T17:01:30.873Z,14.80
2023-03-03T17:04:15.245Z,13.60
2023-03-03T17:06:54.382Z,15.48
2023-03-03T17:09:50.371Z,15.00
2023-03-03T17:12:37.098Z,14.38
2023-03-03T17:15:16.602Z,11.75
2023-03-03T17:17:52.612Z,13.95
2023-03-03T17:20:33.983Z,13.15
2023-03-03T17:23:27.968Z,13.73
2023-03-03T17:26:11.537Z,13.63
2023-03-03T17:28:50.033Z,14.32
2023-03-03T17:31:30.784Z,13.35
2023-03-03T17:34:27.423Z,13.82
2023-03-03T17:37:14.910Z,13.55
2023-03-03T17:40:12.557Z,14.93
2023-03-03T17:42:47.658Z,16.10
2023-03-03T17:45:18.503Z,13.40
2023-03-03T17:48:14.186Z,13.60
2023-03-03T17:51:10.724Z,16.90
2023-03-03T17:54:06.463Z,13.85
2023-03-03T17:56:43.034Z,14.30
2023-03-03T17:59:56.100Z,13.40
2023-03-03T18:02:58.647Z,13.70
2023-03-03T18:05:46.129Z,14.77
2023-03-03T18:08:35.710Z,12.57
2023-03-03T18:11:24.277Z,14.63
2023-03-03T18:14:22.152Z,16.63
2023-03-03T18:17:11.572Z,12.20
2023-03-03T18:20:17.721Z,15.75
2023-03-03T18:22:48.280Z,14.38
2023-03-03T18:25:19.185Z,14.07
2023-03-03T18:28:14.681Z,14.30
2023-03-03T18:31:00.251Z,14.27
2023-03-03T18:33:44.816Z,15.02
2023-03-03T18:36:38.781Z,14.25
2023-03-03T18:39:14.440Z,13.25
2023-03-03T18:42:10.957Z,14.25
2023-03-03T18:44:41.436Z,14.60
2023-03-03T18:47:11.275Z,13.60
2023-03-03T18:50:05.373Z,14.13
2023-03-03T18:52:36.516Z,16.35
2023-03-03T18:55:28.008Z,14.38
2023-03-03T18:58:57.785Z,15.02
2023-03-03T19:01:44.368Z,14.80
2023-03-03T19:04:25.867Z,15.73
2023-03-03T19:07:26.450Z,14.32
2023-03-03T19:09:58.332Z,14.18
2023-03-03T19:12:52.984Z,14.88
2023-03-03T19:15:44.973Z,13.63
2023-03-03T19:18:21.468Z,14.95
2023-03-03T19:20:58.321Z,17.23
2023-03-03T19:23:50.780Z,15.05
2023-03-03T19:26:46.872Z,15.63
2023-03-03T19:30:00.661Z,18.50
2023-03-03T19:33:05.049Z,17.02
2023-03-03T19:35:44.088Z,14.60
2023-03-03T19:38:25.049Z,14.63
2023-03-03T19:41:01.630Z,14.30
2023-03-03T19:43:40.982Z,16.55
2023-03-03T19:46:42.608Z,15.25
2023-03-03T19:49:22.551Z,15.82
2023-03-03T19:52:03.024Z,15.40
2023-03-03T19:55:03.141Z,15.50
2023-03-03T19:57:49.079Z,14.10
2023-03-03T20:00:25.856Z,15.60
2023-03-03T20:03:26.230Z,15.18
2023-03-03T20:06:03.538Z,12.73
2023-03-03T20:08:59.001Z,13.70
2023-03-03T20:11:48.062Z,13.98
2023-03-03T20:14:44.437Z,13.65
2023-03-03T20:17:45.651Z,13.43
2023-03-03T20:20:36.304Z,12.52
2023-03-03T20:23:16.570Z,14.32
2023-03-03T20:25:49.954Z,12.57
2023-03-03T20:28:47.012Z,11.20
2023-03-03T20:31:23.826Z,9.93
2023-03-03T20:34:04.931Z,10.15
2023-03-03T20:36:43.250Z,8.48
2023-03-03T20:39:18.100Z,9.02
2023-03-03T20:42:05.851Z,8.40
2023-03-03T20:44:55.052Z,7.32
2023-03-03T20:47:39.413Z,7.55
2023-03-03T20:50:19.108Z,7.03
2023-03-03T20:53:00.249Z,7.07
2023-03-03T20:55:40.803Z,8.57
2023-03-03T20:58:18.539Z,6.60
2023-03-03T21:00:54.193Z,8.82
2023-03-03T21:03:34.241Z,7.63
2023-03-03T21:06:07.556Z,8.70
2023-03-03T21:08:45.992Z,9.25
2023-03-03T21:11:16.950Z,7.85
2023-03-03T21:13:48.951Z,9.50
2023-03-03T21:16:34.617Z,8.00
2023-03-03T21:19:05.143Z,8.70
2023-03-03T21:21:36.106Z,9.95
2023-03-03T21:24:06.091Z,9.60
2023-03-03T21:26:58.572Z,9.48
2023-03-03T21:29:30.926Z,9.60
2023-03-03T21:32:01.205Z,9.88
2023-03-03T21:34:31.979Z,9.93
2023-03-03T21:37:02.848Z,10.82
2023-03-03T21:39:33.369Z,10.10
2023-03-03T21:42:04.690Z,10.57
2023-03-03T21:45:31.262Z,9.70
2023-03-03T21:48:03.222Z,11.55
2023-03-03T21:50:32.940Z,12.30
2023-03-03T21:53:01.911Z,12.00
2023-03-03T21:55:30.944Z,10.90
2023-03-03T21:57:59.963Z,11.55
2023-03-03T22:00:28.975Z,13.55
2023-03-03T22:03:01.202Z,11.93
2023-03-03T22:05:30.584Z,12.73
2023-03-03T22:07:59.517Z,12.13
2023-03-03T22:10:28.795Z,11.85
2023-03-03T22:12:57.835Z,13.13
2023-03-03T22:15:33.406Z,12.25
2023-03-03T22:18:03.855Z,12.60
2023-03-03T22:20:32.913Z,14.45
2023-03-03T22:23:01.867Z,11.45
2023-03-03T22:25:30.946Z,10.25
2023-03-03T22:27:59.940Z,11.20
2023-03-03T22:30:28.890Z,11.68
2023-03-03T22:32:57.870Z,12.15
2023-03-03T22:35:28.484Z,12.65
2023-03-03T22:37:57.606Z,10.80
2023-03-03T22:40:27.231Z,9.43
2023-03-03T22:42:56.178Z,11.40
2023-03-03T22:45:27.186Z,10.70
2023-03-03T22:47:56.243Z,10.35
2023-03-03T22:50:25.330Z,11.00
2023-03-03T22:52:55.843Z,9.93
2023-03-03T22:55:24.961Z,12.07
2023-03-03T22:57:53.978Z,10.35
2023-03-03T23:00:23.527Z,12.07
2023-03-03T23:02:52.449Z,12.98
2023-03-03T23:05:21.668Z,13.35
2023-03-03T23:07:51.017Z,11.85
2023-03-03T23:10:21.918Z,14.07
2023-03-03T23:12:50.821Z,15.38
2023-03-03T23:15:21.094Z,14.25
2023-03-03T23:17:50.484Z,18.42
2023-03-03T23:20:23.700Z,16.38
2023-03-03T23:22:53.029Z,18.90
2023-03-03T23:25:24.543Z,17.42
2023-03-03T23:27:54.459Z,17.73
2023-03-03T23:30:26.495Z,21.10
2023-03-03T23:32:56.677Z,18.42
2023-03-03T23:35:25.997Z,19.90
2023-03-03T23:37:54.988Z,21.70
2023-03-03T23:40:25.478Z,20.60
2023-03-03T23:42:54.386Z,20.33
2023-03-03T23:45:30.580Z,20.33
2023-03-03T23:47:59.577Z,22.10
2023-03-03T23:50:28.690Z,20.20
2023-03-03T23:52:57.641Z,19.63
2023-03-03T23:55:28.175Z,22.60
2023-03-03T23:57:57.473Z,22.90
